Time;durP1;ratioP1;P1;durP2;ratioP2;P2;SDS_P1;SDS_P2;PMS_P1;PMS_P2;Temp;Humidity;BMP_temperature;BMP_pressure;BME280_temperature;BME280_humidity;BME280_pressure;Samples;Min_cycle;Max_cycle;Signal;HPM_P1;HPM_P2
2022/02/27 00:03:28;;;;;;;4.10;1.40;;;3.80;75.40;;;;;;10037324;28;20021;-61
2022/02/27 00:08:19;;;;;;;4.88;1.92;;;3.70;75.80;;;;;;10048391;28;20050;-61
2022/02/27 00:13:10;;;;;;;4.45;1.55;;;3.70;76.00;;;;;;10043982;28;20050;-61
2022/02/27 00:18:00;;;;;;;8.43;1.58;;;3.70;76.30;;;;;;10050674;28;20037;-62
2022/02/27 00:22:51;;;;;;;9.38;2.10;;;3.50;76.70;;;;;;10043469;28;20550;-60
2022/02/27 00:27:42;;;;;;;3.17;1.48;;;3.60;76.90;;;;;;10049212;28;20064;-61
2022/02/27 00:32:33;;;;;;;2.45;1.48;;;3.60;77.20;;;;;;10046572;28;20029;-62
2022/02/27 00:37:23;;;;;;;3.20;1.40;;;3.60;77.70;;;;;;10051155;28;20045;-61
2022/02/27 00:42:14;;;;;;;3.50;1.55;;;2.90;77.60;;;;;;10045358;28;20455;-61
2022/02/27 00:47:05;;;;;;;3.28;1.20;;;3.50;78.40;;;;;;10038913;28;20042;-62
2022/02/27 00:51:56;;;;;;;5.05;1.67;;;3.40;78.40;;;;;;10048638;28;20099;-62
2022/02/27 00:56:46;;;;;;;8.75;1.52;;;3.40;78.60;;;;;;10047188;28;20123;-62
2022/02/27 01:01:37;;;;;;;3.47;1.73;;;3.40;78.40;;;;;;10042011;28;20022;-61
2022/02/27 01:06:28;;;;;;;3.88;1.60;;;3.40;78.90;;;;;;10048338;28;20030;-62
2022/02/27 01:11:19;;;;;;;2.50;1.25;;;3.40;77.80;;;;;;10045073;28;20043;-61
2022/02/27 01:16:09;;;;;;;7.70;1.42;;;3.40;78.70;;;;;;10040175;28;20065;-61
2022/02/27 01:21:00;;;;;;;1.60;1.25;;;3.40;78.60;;;;;;10043558;28;20728;-61
2022/02/27 01:25:51;;;;;;;3.45;1.55;;;3.30;79.70;;;;;;10039237;28;20025;-62
2022/02/27 01:30:42;;;;;;;3.38;1.45;;;3.30;79.80;;;;;;10037627;28;20049;-62
2022/02/27 01:35:32;;;;;;;3.75;1.30;;;3.30;80.30;;;;;;10047686;28;20029;-61
2022/02/27 01:40:24;;;;;;;4.75;1.33;;;3.20;80.80;;;;;;10047845;28;20395;-61
2022/02/27 01:45:14;;;;;;;2.17;1.38;;;3.20;81.30;;;;;;10049752;28;20029;-61
2022/02/27 01:50:06;;;;;;;3.47;1.42;;;3.20;80.80;;;;;;10042645;28;20061;-61
2022/02/27 01:54:58;;;;;;;1.92;1.08;;;3.10;81.50;;;;;;10050123;28;20503;-61
2022/02/27 01:59:49;;;;;;;2.70;1.33;;;3.10;81.40;;;;;;10048682;28;20531;-61
2022/02/27 02:04:41;;;;;;;3.35;1.88;;;3.20;80.90;;;;;;10048080;28;20033;-62
2022/02/27 02:09:33;;;;;;;4.50;1.83;;;3.20;81.10;;;;;;10046959;28;20499;-61
2022/02/27 02:14:24;;;;;;;2.08;1.30;;;3.20;80.80;;;;;;10046254;28;20496;-61
2022/02/27 02:19:17;;;;;;;4.03;1.42;;;3.10;81.20;;;;;;10045179;28;20116;-61
2022/02/27 02:24:08;;;;;;;3.22;1.27;;;3.10;81.00;;;;;;10044422;28;20030;-62
2022/02/27 02:28:59;;;;;;;3.78;1.42;;;3.10;81.00;;;;;;10055230;28;20038;-60
2022/02/27 02:33:50;;;;;;;5.78;1.73;;;3.10;81.10;;;;;;10044775;28;20022;-61
2022/02/27 02:38:41;;;;;;;6.88;1.73;;;3.10;81.40;;;;;;10045650;28;20032;-61
2022/02/27 02:43:31;;;;;;;2.85;1.58;;;3.10;81.20;;;;;;10046304;28;20057;-61
2022/02/27 02:48:23;;;;;;;6.25;2.13;;;3.10;80.80;;;;;;10046525;28;20523;-62
2022/02/27 02:53:14;;;;;;;3.15;1.27;;;3.00;82.10;;;;;;10045729;28;20072;-62
2022/02/27 02:58:05;;;;;;;6.35;1.63;;;2.90;82.70;;;;;;10050758;28;20049;-62
2022/02/27 03:02:56;;;;;;;10.25;1.42;;;2.90;83.10;;;;;;10052913;28;20308;-63
2022/02/27 03:07:46;;;;;;;3.45;1.23;;;2.90;83.40;;;;;;10052558;28;20037;-62
2022/02/27 03:12:39;;;;;;;8.05;1.73;;;2.90;83.10;;;;;;10048825;28;20227;-62
2022/02/27 03:17:30;;;;;;;3.28;1.65;;;2.90;83.00;;;;;;10048052;28;20665;-62
2022/02/27 03:22:20;;;;;;;4.97;1.73;;;2.90;83.20;;;;;;10051456;28;20026;-62
2022/02/27 03:27:11;;;;;;;1.80;1.05;;;2.90;83.50;;;;;;10047828;28;20034;-63
2022/02/27 03:32:02;;;;;;;2.88;1.63;;;2.80;84.30;;;;;;10052814;28;20036;-63
2022/02/27 03:36:52;;;;;;;3.00;1.67;;;2.80;84.30;;;;;;10051234;28;20508;-61
2022/02/27 03:41:43;;;;;;;6.50;1.38;;;2.80;83.90;;;;;;10052700;28;20241;-62
2022/02/27 03:46:34;;;;;;;1.60;1.40;;;2.80;84.10;;;;;;10051558;28;20037;-63
2022/02/27 03:51:25;;;;;;;2.83;1.45;;;2.80;83.60;;;;;;10054384;28;20603;-62
2022/02/27 03:56:15;;;;;;;2.75;1.88;;;2.80;83.10;;;;;;10052792;28;20105;-63
2022/02/27 04:01:06;;;;;;;3.03;1.58;;;2.70;83.10;;;;;;10052769;28;20081;-68
2022/02/27 04:05:57;;;;;;;1.55;1.45;;;2.60;82.80;;;;;;10048915;28;20084;-61
2022/02/27 04:10:47;;;;;;;5.28;1.35;;;2.60;82.90;;;;;;10049204;28;20037;-62
2022/02/27 04:15:38;;;;;;;3.17;1.20;;;2.60;83.20;;;;;;10051937;28;20064;-61
2022/02/27 04:20:29;;;;;;;3.58;1.33;;;2.60;83.10;;;;;;10050946;28;20041;-62
2022/02/27 04:25:19;;;;;;;1.92;1.17;;;2.70;84.30;;;;;;10054795;28;20041;-61
2022/02/27 04:30:10;;;;;;;1.75;1.40;;;2.70;84.20;;;;;;10051583;28;20148;-62
2022/02/27 04:35:01;;;;;;;3.75;1.75;;;2.70;85.00;;;;;;10058781;28;20429;-62
2022/02/27 04:39:52;;;;;;;2.05;1.30;;;2.70;85.10;;;;;;10046890;28;20038;-62
2022/02/27 04:44:42;;;;;;;3.70;1.20;;;2.70;85.60;;;;;;10048285;28;20025;-61
2022/02/27 04:49:33;;;;;;;5.22;2.33;;;2.70;85.80;;;;;;10050500;28;20060;-62
2022/02/27 04:54:23;;;;;;;3.33;1.20;;;2.60;86.70;;;;;;10049809;28;20316;-63
2022/02/27 04:59:14;;;;;;;2.50;1.80;;;2.50;86.60;;;;;;10046886;28;20108;-63
2022/02/27 05:04:05;;;;;;;6.95;1.38;;;2.50;87.30;;;;;;10045252;28;20021;-61
2022/02/27 05:08:56;;;;;;;3.83;1.33;;;2.50;86.30;;;;;;10050879;28;20056;-62
2022/02/27 05:13:46;;;;;;;3.65;1.33;;;2.50;86.00;;;;;;10050381;28;20045;-63
2022/02/27 05:18:37;;;;;;;2.92;1.15;;;2.40;86.80;;;;;;10046911;28;20033;-61
2022/02/27 05:23:27;;;;;;;1.52;1.27;;;2.40;87.10;;;;;;10047775;28;20017;-62
2022/02/27 05:28:18;;;;;;;3.20;1.27;;;2.40;87.40;;;;;;10046943;28;20419;-62
2022/02/27 05:33:14;;;;;;;3.40;1.42;;;2.40;86.50;;;;;;10040886;28;20455;-62
2022/02/27 05:38:05;;;;;;;3.22;1.08;;;2.40;86.90;;;;;;10048126;28;20056;-63
2022/02/27 05:42:55;;;;;;;3.85;1.27;;;2.30;87.50;;;;;;10049110;28;20049;-63
2022/02/27 05:47:46;;;;;;;3.38;1.23;;;2.30;87.30;;;;;;10047630;28;20389;-62
2022/02/27 05:52:37;;;;;;;2.53;1.50;;;2.30;87.30;;;;;;10045223;28;20481;-63
2022/02/27 05:57:27;;;;;;;1.73;1.42;;;2.40;87.50;;;;;;10047630;28;20025;-63
2022/02/27 06:02:18;;;;;;;3.03;1.52;;;2.30;87.80;;;;;;10045801;28;20025;-62
2022/02/27 06:07:09;;;;;;;3.33;1.30;;;2.10;88.20;;;;;;10046582;28;20038;-63
2022/02/27 06:11:59;;;;;;;3.80;1.40;;;2.20;88.30;;;;;;10044736;28;20045;-61
2022/02/27 06:16:50;;;;;;;2.58;1.45;;;2.10;88.60;;;;;;10044612;28;20100;-62
2022/02/27 06:21:41;;;;;;;2.15;1.05;;;2.20;87.70;;;;;;10044073;28;20033;-65
2022/02/27 06:26:32;;;;;;;3.38;1.90;;;2.20;88.90;;;;;;10046896;28;20272;-62
2022/02/27 06:31:22;;;;;;;4.80;1.55;;;2.10;88.80;;;;;;10046865;28;20403;-62
2022/02/27 06:36:13;;;;;;;3.33;1.45;;;2.10;89.40;;;;;;10046032;28;20100;-61
2022/02/27 06:41:04;;;;;;;5.18;1.83;;;2.10;89.30;;;;;;10044295;28;20037;-63
2022/02/27 06:45:54;;;;;;;1.92;0.85;;;2.10;88.40;;;;;;10046216;28;20476;-62
2022/02/27 06:50:45;;;;;;;5.55;1.52;;;2.20;88.60;;;;;;10046728;28;20466;-62
2022/02/27 06:55:36;;;;;;;2.88;1.23;;;2.20;88.80;;;;;;10044745;28;20052;-62
2022/02/27 07:00:27;;;;;;;2.33;1.30;;;2.20;89.20;;;;;;10046177;28;20040;-62
2022/02/27 07:05:17;;;;;;;1.77;1.10;;;2.30;87.90;;;;;;10045732;28;20033;-62
2022/02/27 07:10:09;;;;;;;2.25;1.15;;;2.30;88.10;;;;;;10047131;28;20033;-62
2022/02/27 07:15:00;;;;;;;7.65;1.70;;;2.30;88.70;;;;;;10041481;28;20045;-61
2022/02/27 07:19:51;;;;;;;3.65;1.70;;;2.40;88.90;;;;;;10041329;28;20496;-62
2022/02/27 07:24:42;;;;;;;2.92;1.48;;;2.50;88.10;;;;;;10045881;28;20034;-62
2022/02/27 07:29:33;;;;;;;4.25;1.48;;;2.50;88.50;;;;;;10042751;28;20080;-62
2022/02/27 07:34:23;;;;;;;1.90;1.20;;;2.50;87.80;;;;;;10043451;28;20025;-62
2022/02/27 07:39:14;;;;;;;5.10;2.00;;;2.50;88.60;;;;;;10047319;28;20048;-62
2022/02/27 07:44:05;;;;;;;2.92;1.60;;;2.60;88.20;;;;;;10053187;28;20115;-62
2022/02/27 07:48:56;;;;;;;3.63;1.33;;;2.70;88.00;;;;;;10050177;28;20036;-61
2022/02/27 07:53:46;;;;;;;5.22;1.60;;;2.80;88.00;;;;;;10051628;28;20514;-62
2022/02/27 07:58:37;;;;;;;3.17;1.25;;;2.90;88.20;;;;;;10049818;28;20053;-63
2022/02/27 08:03:28;;;;;;;4.57;1.67;;;3.00;88.50;;;;;;10050879;28;20025;-62
2022/02/27 08:08:18;;;;;;;2.35;1.40;;;3.10;87.70;;;;;;10048871;28;20045;-64
2022/02/27 08:13:09;;;;;;;3.35;1.65;;;3.20;87.80;;;;;;10051603;28;20045;-64
2022/02/27 08:18:00;;;;;;;4.07;1.33;;;3.30;87.80;;;;;;10051286;28;20061;-62
2022/02/27 08:22:50;;;;;;;3.90;1.75;;;3.40;87.50;;;;;;10042233;28;20037;-62
2022/02/27 08:27:41;;;;;;;2.25;1.27;;;3.50;87.40;;;;;;10046866;28;20060;-61
2022/02/27 08:32:32;;;;;;;7.07;1.42;;;3.60;87.20;;;;;;10047979;28;20435;-60
2022/02/27 08:37:23;;;;;;;5.72;1.30;;;3.70;87.20;;;;;;10047863;28;20038;-61
2022/02/27 08:42:13;;;;;;;2.72;1.77;;;3.80;87.40;;;;;;10049875;28;20139;-62
2022/02/27 08:47:05;;;;;;;5.32;2.22;;;4.00;87.00;;;;;;10043534;28;20041;-62
2022/02/27 08:51:57;;;;;;;5.78;1.73;;;4.20;86.90;;;;;;10034648;28;20026;-61
2022/02/27 08:56:48;;;;;;;5.07;1.90;;;4.30;86.60;;;;;;10043522;28;20464;-62
2022/02/27 09:01:38;;;;;;;3.70;1.98;;;4.50;86.20;;;;;;10044276;28;20137;-62
2022/02/27 09:06:29;;;;;;;3.83;1.42;;;4.50;86.10;;;;;;10046262;28;20499;-62
2022/02/27 09:11:20;;;;;;;3.63;1.90;;;4.60;86.00;;;;;;10049358;28;20033;-62
2022/02/27 09:16:11;;;;;;;5.30;2.00;;;4.70;86.10;;;;;;10049438;28;20119;-61
2022/02/27 09:21:02;;;;;;;3.35;2.03;;;4.90;85.90;;;;;;10047025;28;20026;-62
2022/02/27 09:25:53;;;;;;;3.40;2.10;;;5.10;85.70;;;;;;10048401;28;20033;-60
2022/02/27 09:30:44;;;;;;;2.72;1.77;;;5.30;85.20;;;;;;10042807;28;20045;-61
2022/02/27 09:35:35;;;;;;;5.18;1.30;;;5.60;84.50;;;;;;10046770;28;20033;-63
2022/02/27 09:40:26;;;;;;;3.42;1.90;;;5.90;83.40;;;;;;10047928;28;20040;-63
2022/02/27 09:45:17;;;;;;;4.82;1.67;;;6.00;82.80;;;;;;10045653;28;20057;-63
2022/02/27 09:50:08;;;;;;;3.67;1.88;;;6.20;82.90;;;;;;10043831;28;20088;-61
2022/02/27 09:54:59;;;;;;;4.10;1.85;;;6.20;82.60;;;;;;10048260;28;20144;-64
2022/02/27 09:59:50;;;;;;;1.63;0.90;;;6.30;82.20;;;;;;10042006;28;20112;-63
2022/02/27 10:04:42;;;;;;;2.38;1.20;;;6.60;81.20;;;;;;10046735;28;20224;-63
2022/02/27 10:09:33;;;;;;;2.88;1.40;;;6.80;80.20;;;;;;10047640;28;20033;-64
2022/02/27 10:14:27;;;;;;;2.20;1.10;;;7.00;79.80;;;;;;10046024;28;20045;-63
2022/02/27 10:19:19;;;;;;;2.97;0.90;;;7.00;79.40;;;;;;10043712;28;20035;-64
2022/02/27 10:24:12;;;;;;;1.15;0.90;;;7.10;78.30;;;;;;10046808;28;20064;-64
2022/02/27 10:29:17;;;;;;;2.42;1.25;;;7.30;77.70;;;;;;10040956;28;20025;-62
2022/02/27 10:34:29;;;;;;;1.95;0.90;;;7.40;77.80;;;;;;10043467;28;20272;-61
2022/02/27 10:39:29;;;;;;;2.42;1.15;;;7.40;75.00;;;;;;10034600;28;20043;-62
2022/02/27 10:44:23;;;;;;;3.17;1.80;;;7.50;75.40;;;;;;10047400;28;20518;-63
2022/02/27 10:49:30;;;;;;;1.50;0.82;;;7.60;75.40;;;;;;10045539;28;20046;-63
2022/02/27 10:54:40;;;;;;;1.85;0.73;;;7.70;74.60;;;;;;10036279;28;20021;-64
2022/02/27 10:59:32;;;;;;;3.15;1.38;;;7.70;75.00;;;;;;10043217;28;20025;-63
2022/02/27 11:04:23;;;;;;;2.13;1.38;;;7.80;75.40;;;;;;10045795;28;20104;-63
2022/02/27 11:09:14;;;;;;;1.90;1.10;;;7.80;74.60;;;;;;10047920;28;20069;-63
2022/02/27 11:14:07;;;;;;;2.30;1.20;;;7.80;74.20;;;;;;10046574;28;20042;-64
2022/02/27 11:18:58;;;;;;;3.90;1.40;;;7.90;74.40;;;;;;10048999;28;20033;-64
2022/02/27 11:23:50;;;;;;;5.55;1.75;;;7.90;74.30;;;;;;10051535;28;20095;-63
2022/02/27 11:28:43;;;;;;;1.65;1.15;;;7.90;74.10;;;;;;10054233;28;20048;-61
2022/02/27 11:33:34;;;;;;;1.88;1.13;;;8.00;73.20;;;;;;10053117;28;20449;-64
2022/02/27 11:38:30;;;;;;;2.17;1.30;;;8.10;72.90;;;;;;10051085;28;20099;-60
2022/02/27 11:43:53;;;;;;;2.55;1.20;;;8.10;71.50;;;;;;10051607;28;20044;-62
2022/02/27 11:49:00;;;;;;;1.10;0.95;;;8.20;70.00;;;;;;10052729;28;20560;-61
2022/02/27 11:53:56;;;;;;;1.63;1.10;;;8.30;70.80;;;;;;10046966;28;20033;-63
2022/02/27 11:58:50;;;;;;;3.72;1.00;;;8.20;70.60;;;;;;10052875;28;20112;-64
2022/02/27 12:03:41;;;;;;;2.28;0.90;;;8.30;70.90;;;;;;10051572;28;20112;-62
2022/02/27 12:09:12;;;;;;;2.05;1.13;;;8.40;70.80;;;;;;10049125;28;20120;-63
2022/02/27 12:14:09;;;;;;;4.47;2.00;;;8.60;69.30;;;;;;10017133;28;20044;-62
2022/02/27 12:18:59;;;;;;;2.58;1.50;;;8.70;69.40;;;;;;10051409;28;20033;-62
2022/02/27 12:23:51;;;;;;;1.88;1.20;;;8.80;69.20;;;;;;10051403;28;20051;-62
2022/02/27 12:28:45;;;;;;;4.60;1.63;;;8.90;67.80;;;;;;10046002;28;20029;-62
2022/02/27 12:33:35;;;;;;;3.92;1.48;;;9.10;67.00;;;;;;10048588;28;20136;-64
2022/02/27 12:38:26;;;;;;;4.07;1.73;;;9.30;67.80;;;;;;10050001;28;20053;-63
2022/02/27 12:43:17;;;;;;;3.60;1.42;;;9.60;66.30;;;;;;10049749;28;20041;-63
2022/02/27 12:48:15;;;;;;;2.65;1.58;;;9.70;65.50;;;;;;10048185;28;20508;-63
2022/02/27 12:53:06;;;;;;;3.13;1.35;;;10.00;66.00;;;;;;10047740;28;20017;-63
2022/02/27 12:58:02;;;;;;;2.17;1.20;;;10.40;64.30;;;;;;10049589;28;20021;-65
2022/02/27 13:02:55;;;;;;;2.15;1.02;;;10.90;65.60;;;;;;10050996;28;20017;-63
2022/02/27 13:07:46;;;;;;;2.35;1.30;;;11.30;65.60;;;;;;10047495;28;20095;-63
2022/02/27 13:12:36;;;;;;;3.45;1.23;;;11.50;65.80;;;;;;10048481;28;20099;-63
2022/02/27 13:17:30;;;;;;;3.28;1.20;;;11.70;64.80;;;;;;10046988;28;20036;-62
2022/02/27 13:22:26;;;;;;;1.83;1.30;;;11.90;62.50;;;;;;10045490;28;20982;-55
2022/02/27 13:27:27;;;;;;;3.10;1.25;;;12.40;65.30;;;;;;10049966;28;20528;-57
2022/02/27 13:32:27;;;;;;;2.03;1.35;;;13.00;65.50;;;;;;10050068;28;20092;-60
2022/02/27 13:37:30;;;;;;;2.58;0.90;;;13.50;66.40;;;;;;10048832;28;20033;-62
2022/02/27 13:42:21;;;;;;;1.55;0.85;;;13.80;65.60;;;;;;10048231;28;20393;-59
2022/02/27 13:47:20;;;;;;;3.50;1.30;;;14.20;66.60;;;;;;10044407;28;20644;-60
2022/02/27 13:52:18;;;;;;;1.10;0.80;;;14.70;65.30;;;;;;10047966;28;20033;-59
2022/02/27 13:57:10;;;;;;;1.40;1.05;;;15.10;62.60;;;;;;10050436;28;20017;-66
2022/02/27 14:02:01;;;;;;;2.25;1.30;;;15.30;60.60;;;;;;10048566;28;20116;-62
2022/02/27 14:06:52;;;;;;;1.30;1.08;;;16.10;60.00;;;;;;10045656;28;20176;-60
2022/02/27 14:11:42;;;;;;;2.13;1.33;;;16.60;57.00;;;;;;10048185;28;20158;-61
2022/02/27 14:16:35;;;;;;;2.75;1.27;;;17.00;54.70;;;;;;10047576;28;20028;-63
2022/02/27 14:21:35;;;;;;;2.90;1.00;;;17.50;52.40;;;;;;10026297;28;20033;-63
2022/02/27 14:26:28;;;;;;;1.55;1.25;;;18.30;50.30;;;;;;10042747;28;20464;-60
2022/02/27 14:31:27;;;;;;;2.15;1.33;;;19.00;47.60;;;;;;10043486;28;20081;-58
2022/02/27 14:36:18;;;;;;;0.95;0.80;;;20.10;45.30;;;;;;10045864;28;20088;-61
2022/02/27 14:41:09;;;;;;;1.95;1.13;;;21.30;42.40;;;;;;10043298;28;20049;-60
2022/02/27 14:45:59;;;;;;;1.45;1.08;;;22.60;39.50;;;;;;10037078;28;20039;-60
2022/02/27 14:50:51;;;;;;;2.22;0.88;;;23.80;37.20;;;;;;10047817;28;20038;-59
2022/02/27 14:55:42;;;;;;;1.65;0.80;;;24.60;35.20;;;;;;10047234;28;20034;-59
2022/02/27 15:00:33;;;;;;;1.83;1.20;;;25.50;33.80;;;;;;10049666;28;20109;-60
2022/02/27 15:05:24;;;;;;;3.80;1.25;;;25.80;32.50;;;;;;10050818;28;20056;-59
2022/02/27 15:10:15;;;;;;;1.23;1.00;;;26.20;31.70;;;;;;10050104;28;20187;-59
2022/02/27 15:15:06;;;;;;;2.15;1.40;;;25.80;30.70;;;;;;10053644;28;20099;-59
2022/02/27 15:19:59;;;;;;;1.73;1.20;;;25.90;30.10;;;;;;10051315;28;20108;-59
2022/02/27 15:24:49;;;;;;;2.75;1.50;;;25.80;29.60;;;;;;10053916;28;20440;-59
2022/02/27 15:29:40;;;;;;;3.40;1.45;;;22.80;31.60;;;;;;10054245;28;20137;-60
2022/02/27 15:34:31;;;;;;;2.22;1.60;;;25.00;29.30;;;;;;10050791;28;20057;-60
2022/02/27 15:39:21;;;;;;;2.20;1.42;;;25.30;29.00;;;;;;10051002;28;20034;-60
2022/02/27 15:44:12;;;;;;;2.38;1.27;;;24.90;28.70;;;;;;10054441;28;20052;-60
2022/02/27 15:49:03;;;;;;;1.60;1.10;;;25.10;28.60;;;;;;10052199;28;20037;-60
2022/02/27 15:53:55;;;;;;;3.58;1.45;;;24.70;28.80;;;;;;10050838;28;20096;-61
2022/02/27 15:58:46;;;;;;;3.53;1.67;;;23.40;29.20;;;;;;10052015;28;20053;-61
2022/02/27 16:03:37;;;;;;;2.13;1.58;;;21.50;30.20;;;;;;10050612;28;20032;-61
2022/02/27 16:08:29;;;;;;;2.30;1.45;;;19.30;31.00;;;;;;10049483;28;20419;-60
2022/02/27 16:13:20;;;;;;;5.35;2.00;;;18.70;32.30;;;;;;10049847;28;20041;-60
2022/02/27 16:18:11;;;;;;;2.45;1.63;;;20.40;30.50;;;;;;10048402;28;20040;-59
2022/02/27 16:23:02;;;;;;;2.08;1.17;;;20.60;30.10;;;;;;10053975;28;20026;-60
2022/02/27 16:27:55;;;;;;;2.30;1.42;;;19.40;30.40;;;;;;10033165;28;20060;-61
2022/02/27 16:32:47;;;;;;;2.10;1.02;;;15.50;33.60;;;;;;10042829;28;20021;-61
2022/02/27 16:37:38;;;;;;;2.58;1.45;;;13.40;35.30;;;;;;10047985;28;20044;-62
2022/02/27 16:42:29;;;;;;;2.70;1.30;;;12.50;35.60;;;;;;10048836;28;20030;-59
2022/02/27 16:47:20;;;;;;;3.40;1.27;;;12.00;35.90;;;;;;10059622;28;20483;-61
2022/02/27 16:52:11;;;;;;;5.35;1.60;;;11.50;35.80;;;;;;10050749;28;20397;-62
2022/02/27 16:57:03;;;;;;;2.45;1.48;;;11.30;35.80;;;;;;10051953;28;20117;-63
2022/02/27 17:01:54;;;;;;;2.15;1.23;;;11.10;36.00;;;;;;10053710;28;20025;-62
2022/02/27 17:06:45;;;;;;;4.47;2.00;;;11.00;36.20;;;;;;10051776;28;20026;-61
2022/02/27 17:11:39;;;;;;;3.85;1.63;;;10.80;36.30;;;;;;10047376;28;20040;-63
2022/02/27 17:16:30;;;;;;;5.18;1.52;;;10.60;36.80;;;;;;10050381;28;20049;-62
2022/02/27 17:21:22;;;;;;;2.55;1.25;;;10.40;36.90;;;;;;10041326;28;20029;-66
2022/02/27 17:26:12;;;;;;;4.40;1.63;;;10.30;37.30;;;;;;10056546;28;20492;-61
2022/02/27 17:31:04;;;;;;;2.05;1.55;;;10.20;37.50;;;;;;10051038;28;20041;-63
2022/02/27 17:35:55;;;;;;;4.10;1.83;;;10.10;38.00;;;;;;10048857;28;20025;-61
2022/02/27 17:40:46;;;;;;;5.18;1.77;;;10.10;38.00;;;;;;10052199;28;20377;-60
2022/02/27 17:45:37;;;;;;;5.93;2.83;;;9.90;38.30;;;;;;10055682;28;20076;-62
2022/02/27 17:50:28;;;;;;;2.85;1.83;;;9.80;38.80;;;;;;10050218;28;20034;-63
2022/02/27 17:55:19;;;;;;;3.88;1.45;;;9.70;39.50;;;;;;10050657;28;20029;-64
2022/02/27 18:00:12;;;;;;;4.05;1.70;;;9.60;40.00;;;;;;10049893;28;20048;-64
2022/02/27 18:05:03;;;;;;;5.00;3.58;;;9.50;40.00;;;;;;10047684;28;20032;-64
2022/02/27 18:09:53;;;;;;;3.17;1.70;;;9.40;40.70;;;;;;10049796;28;20030;-64
2022/02/27 18:14:44;;;;;;;2.50;1.52;;;9.40;40.80;;;;;;10045120;28;20056;-61
2022/02/27 18:19:35;;;;;;;3.58;1.60;;;9.30;41.10;;;;;;10039883;28;20121;-65
2022/02/27 18:24:25;;;;;;;5.35;2.00;;;9.20;41.30;;;;;;10049237;28;20034;-64
2022/02/27 18:29:17;;;;;;;6.47;2.15;;;9.10;41.30;;;;;;10048322;28;20037;-60
2022/02/27 18:34:07;;;;;;;2.83;1.77;;;9.10;41.40;;;;;;10034661;28;20025;-60
2022/02/27 18:39:00;;;;;;;3.28;1.92;;;8.90;41.70;;;;;;10047932;28;20396;-61
2022/02/27 18:43:50;;;;;;;2.28;1.48;;;8.80;41.90;;;;;;10045452;28;20067;-62
2022/02/27 18:48:41;;;;;;;5.55;2.05;;;8.80;42.10;;;;;;10045015;28;20037;-59
2022/02/27 18:53:32;;;;;;;3.55;1.35;;;8.70;42.30;;;;;;10045266;28;20034;-64
2022/02/27 18:58:23;;;;;;;4.07;2.13;;;8.60;42.40;;;;;;10045948;28;20029;-64
2022/02/27 19:03:14;;;;;;;3.35;1.38;;;8.60;42.60;;;;;;10045262;28;20029;-60
2022/02/27 19:08:05;;;;;;;4.45;1.65;;;8.50;42.70;;;;;;10045811;28;20268;-64
2022/02/27 19:12:56;;;;;;;2.42;2.05;;;8.50;42.90;;;;;;10043995;28;20041;-63
2022/02/27 19:17:50;;;;;;;3.58;2.17;;;8.40;43.00;;;;;;10044680;28;20052;-63
2022/02/27 19:22:41;;;;;;;5.28;2.95;;;7.90;43.10;;;;;;10044120;28;20213;-63
2022/02/27 19:27:32;;;;;;;4.32;2.05;;;8.30;43.50;;;;;;10047014;28;20034;-64
2022/02/27 19:32:23;;;;;;;4.03;2.08;;;8.30;43.40;;;;;;10044129;28;20492;-64
2022/02/27 19:37:16;;;;;;;3.63;1.80;;;8.30;43.60;;;;;;10051609;28;20025;-62
2022/02/27 19:42:07;;;;;;;7.25;2.97;;;8.10;43.70;;;;;;10046146;28;20118;-63
2022/02/27 19:46:58;;;;;;;3.13;1.88;;;8.00;43.80;;;;;;10052060;28;20029;-64
2022/02/27 19:51:49;;;;;;;3.50;2.03;;;8.00;44.10;;;;;;10049308;28;20080;-61
2022/02/27 19:56:40;;;;;;;3.33;1.92;;;7.90;44.30;;;;;;10051786;28;20026;-64
2022/02/27 20:01:31;;;;;;;4.22;2.63;;;7.90;44.40;;;;;;10053567;28;20048;-62
2022/02/27 20:06:22;;;;;;;3.85;2.22;;;7.90;44.40;;;;;;10051201;28;20536;-63
2022/02/27 20:11:13;;;;;;;4.15;2.30;;;7.80;45.30;;;;;;10047831;28;20049;-62
2022/02/27 20:16:05;;;;;;;6.07;2.72;;;7.70;44.50;;;;;;10050048;28;20115;-64
2022/02/27 20:21:06;;;;;;;3.47;2.08;;;7.60;44.80;;;;;;10037107;28;20033;-63
2022/02/27 20:25:58;;;;;;;4.55;2.70;;;7.50;45.20;;;;;;10050302;28;20504;-64
2022/02/27 20:30:49;;;;;;;3.95;2.53;;;7.50;45.20;;;;;;10049016;28;20075;-63
2022/02/27 20:35:40;;;;;;;6.78;3.22;;;7.40;45.30;;;;;;10048378;28;20359;-64
2022/02/27 20:40:31;;;;;;;4.75;2.90;;;7.30;45.50;;;;;;10050575;28;20699;-63
2022/02/27 20:45:22;;;;;;;5.30;3.20;;;7.30;45.80;;;;;;10050454;28;20343;-63
2022/02/27 20:50:13;;;;;;;7.57;3.63;;;7.30;45.80;;;;;;10050690;28;20052;-62
2022/02/27 20:55:08;;;;;;;13.77;6.00;;;7.30;46.10;;;;;;10049730;28;20027;-63
2022/02/27 20:59:59;;;;;;;11.52;4.63;;;7.30;46.00;;;;;;10037938;28;20025;-64
2022/02/27 21:04:50;;;;;;;8.18;4.03;;;7.20;46.10;;;;;;10043026;28;20447;-64
2022/02/27 21:09:41;;;;;;;4.07;3.05;;;7.20;46.30;;;;;;10047347;28;20033;-64
2022/02/27 21:14:32;;;;;;;5.30;3.05;;;7.30;46.40;;;;;;10043377;28;20042;-63
2022/02/27 21:19:22;;;;;;;6.00;2.78;;;7.10;46.40;;;;;;10047601;28;20049;-64
2022/02/27 21:24:14;;;;;;;6.40;2.97;;;7.10;46.70;;;;;;10048722;28;20025;-65
2022/02/27 21:29:06;;;;;;;6.85;2.25;;;7.10;46.70;;;;;;10037845;28;20145;-66
2022/02/27 21:33:58;;;;;;;4.47;3.13;;;7.00;46.90;;;;;;10045635;28;20109;-64
2022/02/27 21:38:50;;;;;;;10.32;5.13;;;7.00;46.90;;;;;;10048202;28;20052;-64
2022/02/27 21:43:41;;;;;;;10.15;4.55;;;6.90;47.10;;;;;;10045940;28;20448;-64
2022/02/27 21:48:32;;;;;;;8.35;3.80;;;6.80;47.10;;;;;;10030822;28;20049;-64
2022/02/27 21:53:23;;;;;;;6.57;3.45;;;6.70;47.30;;;;;;10049820;28;20451;-62
2022/02/27 21:58:14;;;;;;;6.75;3.05;;;6.70;47.40;;;;;;10047686;28;20451;-62
2022/02/27 22:03:05;;;;;;;6.18;2.72;;;6.60;47.80;;;;;;10047602;28;20123;-63
2022/02/27 22:07:56;;;;;;;5.63;2.85;;;6.50;47.90;;;;;;10048602;28;20044;-62
2022/02/27 22:12:46;;;;;;;4.65;2.42;;;6.60;47.90;;;;;;10047356;28;20087;-63
2022/02/27 22:17:37;;;;;;;6.03;2.60;;;6.60;48.10;;;;;;10046519;28;20037;-64
2022/02/27 22:22:28;;;;;;;4.32;2.30;;;6.60;48.20;;;;;;10040497;28;20037;-61
2022/02/27 22:27:18;;;;;;;6.50;2.70;;;6.70;48.20;;;;;;10045634;28;20037;-60
2022/02/27 22:32:09;;;;;;;4.90;2.80;;;6.70;48.20;;;;;;10043198;28;20100;-61
2022/02/27 22:37:00;;;;;;;5.45;2.97;;;6.60;48.20;;;;;;10044207;28;20164;-62
2022/02/27 22:41:51;;;;;;;5.05;2.83;;;6.60;48.40;;;;;;10044869;28;20144;-62
2022/02/27 22:46:41;;;;;;;4.55;2.80;;;6.60;48.60;;;;;;10045229;28;20021;-61
2022/02/27 22:51:33;;;;;;;4.97;3.25;;;6.50;48.50;;;;;;10043699;28;20053;-62
2022/02/27 22:56:23;;;;;;;3.97;2.70;;;6.40;48.60;;;;;;10045273;28;20021;-61
2022/02/27 23:01:14;;;;;;;5.82;2.42;;;6.40;48.80;;;;;;10045666;28;20045;-61
2022/02/27 23:06:05;;;;;;;5.93;2.70;;;6.40;48.80;;;;;;10043581;28;20510;-60
2022/02/27 23:11:07;;;;;;;8.38;2.95;;;6.30;48.80;;;;;;10048204;28;20041;-61
2022/02/27 23:15:59;;;;;;;7.15;3.22;;;6.30;49.00;;;;;;10050706;28;20046;-62
2022/02/27 23:20:51;;;;;;;4.88;2.85;;;6.20;49.10;;;;;;10054725;28;20396;-61
2022/02/27 23:25:42;;;;;;;5.22;2.72;;;6.10;49.00;;;;;;10052593;28;20071;-61
2022/02/27 23:30:34;;;;;;;4.63;3.30;;;6.10;49.00;;;;;;10050767;28;20033;-62
2022/02/27 23:35:26;;;;;;;3.42;2.78;;;6.10;49.20;;;;;;10050650;28;20129;-61
2022/02/27 23:40:17;;;;;;;4.68;2.97;;;6.10;49.20;;;;;;10049973;28;20195;-63
2022/02/27 23:45:08;;;;;;;5.55;2.95;;;6.00;49.30;;;;;;10052070;28;20590;-61
2022/02/27 23:49:59;;;;;;;6.10;3.22;;;6.00;49.40;;;;;;10051079;28;20116;-61
2022/02/27 23:54:49;;;;;;;13.13;3.35;;;6.00;49.40;;;;;;10050434;28;20100;-61
2022/02/27 23:59:40;;;;;;;5.75;3.47;;;5.90;49.60;;;;;;10044998;28;20032;-60
